createdAt,value
2023-05-08T00:00:08.156Z,68.20
2023-05-08T00:02:34.936Z,68.20
2023-05-08T00:05:01.807Z,68.10
2023-05-08T00:07:28.576Z,68.10
2023-05-08T00:09:55.305Z,68.10
2023-05-08T00:12:21.953Z,68.10
2023-05-08T00:14:48.555Z,68.10
2023-05-08T00:17:15.351Z,68.00
2023-05-08T00:19:41.954Z,67.90
2023-05-08T00:22:08.572Z,67.90
2023-05-08T00:24:35.224Z,68.00
2023-05-08T00:27:01.828Z,68.10
2023-05-08T00:29:28.793Z,68.10
2023-05-08T00:31:55.492Z,68.10
2023-05-08T00:34:22.264Z,68.10
2023-05-08T00:36:48.905Z,68.00
2023-05-08T00:39:15.666Z,68.10
2023-05-08T00:41:42.619Z,68.00
2023-05-08T00:44:09.409Z,68.00
2023-05-08T00:46:36.913Z,67.90
2023-05-08T00:49:05.645Z,67.90
2023-05-08T00:51:33.810Z,68.00
2023-05-08T00:54:00.677Z,68.00
2023-05-08T00:56:29.396Z,68.10
2023-05-08T00:58:56.984Z,68.10
2023-05-08T01:01:24.211Z,68.10
2023-05-08T01:03:51.117Z,68.00
2023-05-08T01:06:17.860Z,68.00
2023-05-08T01:08:45.902Z,68.00
2023-05-08T01:11:21.781Z,68.00
2023-05-08T01:14:10.034Z,68.20
2023-05-08T01:16:48.599Z,68.20
2023-05-08T01:19:52.752Z,68.20
2023-05-08T01:22:47.110Z,67.90
2023-05-08T01:25:40.552Z,68.40
2023-05-08T01:28:19.523Z,68.30
2023-05-08T01:30:55.371Z,68.40
2023-05-08T01:33:33.470Z,68.70
2023-05-08T01:36:09.459Z,68.80
2023-05-08T01:38:52.358Z,69.00
2023-05-08T01:41:27.836Z,69.10
2023-05-08T01:44:10.942Z,69.20
2023-05-08T01:46:37.772Z,69.30
2023-05-08T01:49:17.616Z,69.30
2023-05-08T01:51:48.596Z,69.70
2023-05-08T01:54:19.786Z,69.60
2023-05-08T01:56:48.891Z,69.60
2023-05-08T01:59:20.530Z,69.70
2023-05-08T02:01:49.353Z,69.70
2023-05-08T02:04:17.167Z,69.50
2023-05-08T02:06:44.576Z,69.40
2023-05-08T02:09:12.534Z,69.40
2023-05-08T02:11:42.431Z,69.50
2023-05-08T02:14:12.378Z,69.40
2023-05-08T02:16:42.031Z,69.30
2023-05-08T02:19:11.641Z,69.30
2023-05-08T02:21:41.870Z,69.30
2023-05-08T02:24:09.170Z,69.20
2023-05-08T02:26:37.694Z,69.10
2023-05-08T02:29:04.486Z,69.10
2023-05-08T02:31:31.699Z,68.90
2023-05-08T02:33:59.654Z,68.80
2023-05-08T02:36:28.977Z,68.90
2023-05-08T02:38:58.674Z,69.00
2023-05-08T02:41:29.714Z,69.10
2023-05-08T02:43:57.040Z,69.20
2023-05-08T02:46:49.386Z,69.00
2023-05-08T02:49:29.084Z,68.50
2023-05-08T02:52:18.453Z,69.10
2023-05-08T02:55:01.744Z,69.10
2023-05-08T02:57:46.889Z,68.80
2023-05-08T03:00:16.312Z,69.00
2023-05-08T03:02:49.036Z,66.90
2023-05-08T03:05:19.502Z,68.70
2023-05-08T03:07:49.711Z,69.00
2023-05-08T03:10:18.449Z,69.10
2023-05-08T03:12:48.568Z,69.10
2023-05-08T03:15:28.338Z,69.20
2023-05-08T03:17:58.602Z,69.40
2023-05-08T03:20:28.357Z,69.20
2023-05-08T03:22:55.958Z,69.20
2023-05-08T03:25:23.492Z,69.30
2023-05-08T03:27:51.960Z,69.30
2023-05-08T03:30:20.562Z,69.50
2023-05-08T03:32:49.692Z,69.60
2023-05-08T03:35:17.192Z,69.70
2023-05-08T03:37:45.532Z,69.70
2023-05-08T03:40:12.923Z,69.70
2023-05-08T03:42:40.873Z,69.70
2023-05-08T03:45:10.690Z,69.80
2023-05-08T03:47:37.967Z,69.80
2023-05-08T03:50:05.426Z,69.60
2023-05-08T03:52:32.585Z,69.50
2023-05-08T03:54:59.331Z,69.60
2023-05-08T03:57:40.206Z,69.80
2023-05-08T04:00:13.592Z,70.00
2023-05-08T04:03:00.844Z,69.90
2023-05-08T04:05:50.076Z,69.70
2023-05-08T04:08:22.486Z,69.50
2023-05-08T04:11:09.736Z,70.00
2023-05-08T04:13:43.229Z,69.70
2023-05-08T04:16:26.920Z,69.80
2023-05-08T04:19:02.121Z,69.60
2023-05-08T04:21:31.416Z,69.60
2023-05-08T04:23:58.857Z,69.50
2023-05-08T04:26:25.924Z,69.50
2023-05-08T04:28:53.290Z,69.40
2023-05-08T04:31:20.072Z,69.40
2023-05-08T04:33:47.379Z,69.40
2023-05-08T04:36:14.782Z,69.30
2023-05-08T04:38:41.521Z,69.30
2023-05-08T04:41:08.664Z,69.40
2023-05-08T04:43:36.494Z,69.40
2023-05-08T04:46:05.282Z,69.40
2023-05-08T04:48:33.806Z,69.40
2023-05-08T04:51:00.902Z,69.30
2023-05-08T04:53:27.593Z,69.40
2023-05-08T04:55:54.252Z,69.30
2023-05-08T04:58:21.023Z,69.50
2023-05-08T05:00:48.869Z,69.50
2023-05-08T05:03:15.707Z,69.20
2023-05-08T05:05:42.548Z,69.20
2023-05-08T05:08:09.224Z,69.10
2023-05-08T05:10:35.936Z,69.00
2023-05-08T05:13:05.126Z,69.00
2023-05-08T05:15:31.785Z,69.00
2023-05-08T05:17:58.550Z,68.90
2023-05-08T05:20:25.212Z,68.90
2023-05-08T05:22:51.904Z,68.90
2023-05-08T05:25:18.645Z,68.90
2023-05-08T05:27:45.270Z,69.00
2023-05-08T05:30:12.662Z,68.80
2023-05-08T05:32:39.565Z,68.80
2023-05-08T05:35:06.840Z,68.80
2023-05-08T05:37:35.069Z,68.80
2023-05-08T05:40:01.902Z,68.70
2023-05-08T05:42:28.587Z,68.70
2023-05-08T05:44:56.877Z,68.60
2023-05-08T05:47:23.722Z,68.60
2023-05-08T05:49:50.377Z,68.60
2023-05-08T05:52:17.213Z,68.60
2023-05-08T05:54:43.868Z,68.80
2023-05-08T05:57:10.544Z,69.00
2023-05-08T05:59:37.295Z,69.00
2023-05-08T06:02:04.049Z,69.00
2023-05-08T06:04:30.808Z,69.00
2023-05-08T06:06:57.511Z,69.00
2023-05-08T06:09:24.275Z,69.00
2023-05-08T06:11:51.225Z,69.00
2023-05-08T06:14:17.858Z,68.90
2023-05-08T06:16:44.998Z,68.80
2023-05-08T06:19:12.107Z,68.90
2023-05-08T06:21:39.858Z,68.80
2023-05-08T06:24:06.935Z,68.90
2023-05-08T06:26:33.608Z,68.80
2023-05-08T06:29:00.248Z,68.60
2023-05-08T06:31:27.290Z,68.70
2023-05-08T06:33:54.004Z,68.70
2023-05-08T06:36:20.756Z,68.60
2023-05-08T06:38:47.425Z,68.50
2023-05-08T06:41:15.397Z,68.40
2023-05-08T06:43:42.293Z,68.60
2023-05-08T06:46:09.010Z,68.50
2023-05-08T06:48:35.822Z,68.50
2023-05-08T06:51:02.675Z,68.30
2023-05-08T06:53:29.374Z,68.40
2023-05-08T06:55:57.871Z,68.30
2023-05-08T06:58:24.848Z,68.20
2023-05-08T07:00:51.621Z,68.30
2023-05-08T07:03:18.275Z,68.00
2023-05-08T07:05:45.044Z,68.10
2023-05-08T07:08:11.689Z,68.00
2023-05-08T07:10:38.325Z,67.80
2023-05-08T07:13:05.199Z,67.30
2023-05-08T07:15:32.376Z,67.30
2023-05-08T07:17:59.101Z,67.70
2023-05-08T07:20:25.894Z,67.60
2023-05-08T07:22:52.688Z,67.70
2023-05-08T07:25:19.973Z,67.40
2023-05-08T07:27:46.716Z,67.40
2023-05-08T07:30:13.736Z,67.50
2023-05-08T07:32:40.646Z,67.20
2023-05-08T07:35:10.981Z,67.50
2023-05-08T07:37:41.456Z,67.50
2023-05-08T07:40:08.946Z,67.40
2023-05-08T07:42:42.720Z,67.20
2023-05-08T07:45:11.751Z,67.30
2023-05-08T07:47:39.757Z,66.90
2023-05-08T07:50:07.040Z,66.90
2023-05-08T07:52:33.778Z,66.80
2023-05-08T07:55:00.419Z,66.90
2023-05-08T07:57:27.027Z,66.60
2023-05-08T07:59:53.711Z,67.10
2023-05-08T08:02:20.418Z,66.70
2023-05-08T08:04:47.084Z,66.80
2023-05-08T08:07:14.807Z,66.70
2023-05-08T08:09:41.534Z,66.70
2023-05-08T08:12:08.232Z,66.40
2023-05-08T08:14:35.008Z,66.30
2023-05-08T08:17:01.731Z,66.30
2023-05-08T08:19:28.411Z,66.30
2023-05-08T08:21:55.012Z,66.30
2023-05-08T08:24:21.705Z,66.20
2023-05-08T08:26:48.323Z,66.20
2023-05-08T08:29:15.100Z,66.10
2023-05-08T08:31:41.794Z,65.80
2023-05-08T08:34:08.498Z,65.70
2023-05-08T08:36:35.220Z,65.60
2023-05-08T08:39:01.824Z,65.70
2023-05-08T08:41:28.533Z,65.90
2023-05-08T08:43:55.577Z,65.90
2023-05-08T08:46:26.351Z,66.10
2023-05-08T08:48:56.463Z,66.10
2023-05-08T08:51:28.885Z,66.10
2023-05-08T08:54:06.854Z,66.30
2023-05-08T08:56:36.069Z,66.40
2023-05-08T08:59:04.540Z,66.40
2023-05-08T09:01:34.290Z,66.30
2023-05-08T09:04:01.281Z,66.20
2023-05-08T09:06:29.020Z,66.30
2023-05-08T09:08:57.911Z,66.20
2023-05-08T09:11:24.868Z,66.20
2023-05-08T09:13:51.829Z,66.10
2023-05-08T09:16:18.851Z,66.00
2023-05-08T09:18:45.598Z,66.10
2023-05-08T09:21:12.826Z,66.00
2023-05-08T09:23:55.799Z,66.00
2023-05-08T09:26:37.051Z,66.00
2023-05-08T09:29:18.096Z,65.90
2023-05-08T09:31:46.928Z,65.70
2023-05-08T09:34:39.690Z,65.80
2023-05-08T09:37:06.338Z,65.90
2023-05-08T09:39:33.056Z,65.70
2023-05-08T09:42:01.073Z,65.80
2023-05-08T09:44:28.131Z,65.80
2023-05-08T09:47:13.117Z,65.70
2023-05-08T09:49:40.641Z,65.70
2023-05-08T09:52:08.293Z,65.40
2023-05-08T09:54:35.174Z,65.60
2023-05-08T09:57:12.308Z,65.60
2023-05-08T09:59:39.002Z,65.40
2023-05-08T10:02:12.846Z,65.40
2023-05-08T10:04:39.546Z,65.50
2023-05-08T10:07:06.234Z,65.50
2023-05-08T10:09:47.066Z,65.30
2023-05-08T10:12:16.664Z,65.40
2023-05-08T10:14:46.389Z,65.60
2023-05-08T10:17:16.835Z,65.20
2023-05-08T10:19:48.309Z,65.00
2023-05-08T10:22:15.786Z,64.80
2023-05-08T10:24:45.824Z,65.30
2023-05-08T10:27:30.408Z,65.20
2023-05-08T10:30:04.164Z,65.00
2023-05-08T10:32:43.153Z,64.80
2023-05-08T10:35:11.997Z,65.00
2023-05-08T10:37:39.935Z,64.90
2023-05-08T10:40:07.441Z,64.90
2023-05-08T10:42:37.532Z,64.60
2023-05-08T10:45:06.369Z,65.20
2023-05-08T10:48:03.563Z,64.50
2023-05-08T10:50:58.050Z,64.90
2023-05-08T10:53:51.805Z,64.60
2023-05-08T10:56:18.509Z,64.70
2023-05-08T10:58:45.392Z,64.80
2023-05-08T11:01:13.491Z,64.70
2023-05-08T11:03:48.159Z,65.00
2023-05-08T11:06:15.336Z,65.00
2023-05-08T11:08:54.493Z,64.90
2023-05-08T11:11:26.838Z,64.40
2023-05-08T11:14:09.409Z,64.10
2023-05-08T11:16:54.264Z,63.80
2023-05-08T11:19:26.930Z,64.10
2023-05-08T11:22:29.073Z,63.90
2023-05-08T11:24:56.950Z,64.60
2023-05-08T11:27:35.636Z,64.30
2023-05-08T11:30:19.603Z,64.30
2023-05-08T11:33:04.897Z,64.40
2023-05-08T11:35:54.017Z,64.50
2023-05-08T11:38:22.191Z,64.10
2023-05-08T11:41:06.112Z,63.90
2023-05-08T11:43:41.642Z,63.90
2023-05-08T11:46:19.473Z,63.80
2023-05-08T11:48:46.373Z,63.40
2023-05-08T11:51:13.768Z,64.20
2023-05-08T11:53:40.869Z,64.30
2023-05-08T11:56:08.141Z,63.60
2023-05-08T11:58:36.537Z,64.10
2023-05-08T12:01:03.592Z,64.10
2023-05-08T12:03:30.643Z,63.50
2023-05-08T12:05:59.190Z,64.20
2023-05-08T12:08:26.209Z,63.80
2023-05-08T12:10:54.052Z,64.20
2023-05-08T12:13:25.959Z,64.20
2023-05-08T12:15:57.614Z,64.20
2023-05-08T12:18:26.717Z,64.40
2023-05-08T12:20:56.917Z,63.40
2023-05-08T12:23:25.981Z,63.00
2023-05-08T12:25:56.488Z,63.30
2023-05-08T12:28:23.120Z,63.90
2023-05-08T12:30:50.352Z,64.10
2023-05-08T12:33:18.494Z,63.90
2023-05-08T12:35:45.258Z,63.50
2023-05-08T12:38:12.226Z,63.60
2023-05-08T12:40:43.916Z,63.40
2023-05-08T12:43:11.269Z,63.70
2023-05-08T12:45:40.026Z,63.20
2023-05-08T12:48:13.402Z,63.30
2023-05-08T12:50:44.675Z,62.90
2023-05-08T12:53:13.644Z,63.70
2023-05-08T12:55:51.853Z,63.70
2023-05-08T12:58:19.642Z,62.80
2023-05-08T13:00:48.397Z,63.50
2023-05-08T13:03:26.661Z,63.20
2023-05-08T13:05:55.124Z,63.20
2023-05-08T13:08:33.686Z,63.30
2023-05-08T13:11:01.577Z,63.10
2023-05-08T13:13:30.793Z,63.30
2023-05-08T13:15:58.125Z,63.40
2023-05-08T13:18:28.093Z,62.90
2023-05-08T13:20:58.104Z,63.60
2023-05-08T13:23:24.885Z,63.50
2023-05-08T13:25:51.622Z,62.90
2023-05-08T13:28:18.309Z,63.40
2023-05-08T13:30:44.958Z,63.50
2023-05-08T13:33:11.620Z,63.80
2023-05-08T13:35:38.333Z,63.40
2023-05-08T13:38:05.962Z,63.60
2023-05-08T13:40:32.678Z,63.90
2023-05-08T13:42:59.284Z,63.70
2023-05-08T13:45:26.033Z,63.10
2023-05-08T13:47:52.895Z,63.60
2023-05-08T13:50:21.771Z,63.50
2023-05-08T13:52:49.053Z,62.40
2023-05-08T13:55:16.505Z,62.50
2023-05-08T13:57:43.456Z,61.80
2023-05-08T14:00:11.126Z,61.80
2023-05-08T14:02:38.325Z,61.80
2023-05-08T14:05:07.952Z,61.60
2023-05-08T14:07:35.627Z,61.70
2023-05-08T14:10:02.537Z,62.70
2023-05-08T14:12:29.495Z,62.30
2023-05-08T14:14:56.458Z,62.00
2023-05-08T14:17:23.197Z,62.40
2023-05-08T14:19:49.892Z,63.40
2023-05-08T14:22:16.589Z,62.60
2023-05-08T14:24:44.173Z,62.60
2023-05-08T14:27:11.137Z,62.70
2023-05-08T14:29:38.047Z,62.40
2023-05-08T14:32:05.193Z,61.90
2023-05-08T14:34:32.018Z,61.50
2023-05-08T14:36:58.864Z,62.60
2023-05-08T14:39:25.765Z,62.20
2023-05-08T14:42:17.793Z,62.50
2023-05-08T14:44:39.446Z,62.90
2023-05-08T14:47:06.569Z,61.50
2023-05-08T14:49:38.084Z,61.50
2023-05-08T14:52:06.308Z,61.20
2023-05-08T14:54:33.588Z,62.20
2023-05-08T14:57:00.609Z,62.00
2023-05-08T14:59:27.238Z,61.90
2023-05-08T15:01:54.089Z,61.40
2023-05-08T15:04:20.970Z,61.60
2023-05-08T15:06:47.803Z,61.40
2023-05-08T15:09:16.462Z,61.80
2023-05-08T15:11:43.264Z,61.10
2023-05-08T15:14:09.945Z,61.80
2023-05-08T15:16:36.814Z,61.40
2023-05-08T15:19:03.522Z,61.50
2023-05-08T15:21:30.283Z,61.70
2023-05-08T15:23:56.897Z,62.30
2023-05-08T15:26:23.650Z,62.40
2023-05-08T15:28:50.974Z,61.60
2023-05-08T15:31:18.343Z,61.70
2023-05-08T15:33:45.559Z,61.80
2023-05-08T15:36:15.828Z,61.30
2023-05-08T15:38:42.950Z,61.00
2023-05-08T15:41:14.666Z,62.20
2023-05-08T15:43:42.171Z,61.50
2023-05-08T15:46:08.951Z,61.70
2023-05-08T15:48:35.682Z,62.10
2023-05-08T15:51:02.412Z,62.60
2023-05-08T15:53:29.049Z,62.10
2023-05-08T15:55:56.979Z,61.70
2023-05-08T15:58:23.881Z,62.20
2023-05-08T16:00:50.709Z,62.40
2023-05-08T16:03:17.752Z,62.30
2023-05-08T16:05:44.784Z,62.40
2023-05-08T16:08:12.809Z,62.20
2023-05-08T16:10:42.932Z,62.40
2023-05-08T16:13:09.914Z,61.70
2023-05-08T16:15:36.706Z,61.60
2023-05-08T16:18:03.581Z,62.30
2023-05-08T16:20:31.114Z,61.60
2023-05-08T16:22:59.660Z,62.10
2023-05-08T16:25:26.378Z,61.80
2023-05-08T16:27:53.105Z,61.60
2023-05-08T16:30:19.983Z,61.10
2023-05-08T16:32:46.960Z,61.40
2023-05-08T16:35:14.631Z,61.30
2023-05-08T16:37:41.815Z,61.40
2023-05-08T16:40:09.467Z,61.60
2023-05-08T16:42:36.869Z,61.70
2023-05-08T16:45:06.802Z,62.10
2023-05-08T16:47:34.406Z,61.90
2023-05-08T16:50:01.264Z,62.30
2023-05-08T16:52:28.437Z,62.40
2023-05-08T16:54:55.199Z,62.50
2023-05-08T16:57:21.939Z,62.60
2023-05-08T16:59:48.513Z,62.60
2023-05-08T17:02:18.698Z,62.70
2023-05-08T17:04:49.466Z,62.70
2023-05-08T17:07:17.160Z,62.80
2023-05-08T17:09:44.142Z,63.00
2023-05-08T17:12:10.928Z,62.90
2023-05-08T17:14:39.401Z,63.00
2023-05-08T17:17:06.896Z,62.60
2023-05-08T17:19:33.761Z,63.00
2023-05-08T17:22:00.513Z,62.90
2023-05-08T17:24:29.070Z,62.90
2023-05-08T17:26:55.841Z,63.00
2023-05-08T17:29:22.528Z,62.70
2023-05-08T17:31:49.282Z,62.70
2023-05-08T17:34:16.052Z,63.10
2023-05-08T17:36:42.740Z,63.20
2023-05-08T17:39:09.628Z,63.40
2023-05-08T17:41:36.493Z,62.90
2023-05-08T17:44:04.212Z,63.20
2023-05-08T17:46:30.968Z,63.30
2023-05-08T17:48:57.605Z,63.30
2023-05-08T17:51:24.347Z,63.50
2023-05-08T17:53:52.961Z,63.30
2023-05-08T17:56:21.272Z,63.10
2023-05-08T17:58:47.913Z,63.40
2023-05-08T18:01:14.748Z,63.60
2023-05-08T18:03:41.891Z,63.60
2023-05-08T18:06:08.639Z,63.80
2023-05-08T18:08:35.426Z,64.10
2023-05-08T18:11:02.082Z,64.10
2023-05-08T18:13:28.826Z,63.80
2023-05-08T18:15:55.512Z,63.90
2023-05-08T18:18:22.261Z,64.30
2023-05-08T18:20:48.920Z,64.00
2023-05-08T18:23:15.918Z,64.20
2023-05-08T18:25:42.824Z,64.20
2023-05-08T18:28:09.471Z,64.40
2023-05-08T18:30:38.128Z,64.40
2023-05-08T18:33:04.757Z,64.50
2023-05-08T18:35:31.635Z,64.60
2023-05-08T18:37:58.236Z,64.60
2023-05-08T18:40:25.004Z,64.60
2023-05-08T18:42:51.704Z,64.70
2023-05-08T18:45:18.522Z,64.80
2023-05-08T18:47:45.181Z,64.80
2023-05-08T18:50:12.172Z,64.90
2023-05-08T18:52:39.191Z,65.00
2023-05-08T18:55:06.379Z,65.00
2023-05-08T18:57:33.074Z,65.00
2023-05-08T18:59:59.697Z,65.00
2023-05-08T19:02:27.973Z,65.10
2023-05-08T19:04:54.788Z,65.00
2023-05-08T19:07:21.582Z,65.10
2023-05-08T19:09:48.298Z,65.10
2023-05-08T19:12:15.014Z,65.10
2023-05-08T19:14:41.694Z,65.20
2023-05-08T19:17:08.323Z,65.20
2023-05-08T19:19:35.020Z,65.20
2023-05-08T19:22:01.676Z,65.20
2023-05-08T19:24:29.874Z,65.20
2023-05-08T19:26:57.522Z,65.30
2023-05-08T19:29:24.342Z,65.20
2023-05-08T19:31:51.207Z,65.20
2023-05-08T19:34:18.115Z,65.30
2023-05-08T19:36:44.749Z,65.30
2023-05-08T19:39:11.341Z,65.30
2023-05-08T19:41:37.978Z,65.50
2023-05-08T19:44:04.622Z,65.50
2023-05-08T19:46:31.338Z,65.60
2023-05-08T19:48:58.036Z,65.60
2023-05-08T19:51:24.896Z,65.70
2023-05-08T19:53:51.527Z,65.70
2023-05-08T19:56:18.173Z,65.70
2023-05-08T19:58:44.866Z,65.80
2023-05-08T20:01:11.590Z,65.90
2023-05-08T20:03:38.421Z,66.00
2023-05-08T20:06:05.369Z,66.00
2023-05-08T20:08:32.059Z,66.10
2023-05-08T20:11:02.303Z,66.20
2023-05-08T20:13:28.932Z,66.20
2023-05-08T20:15:55.705Z,66.20
2023-05-08T20:18:22.372Z,66.30
2023-05-08T20:20:49.007Z,66.20
2023-05-08T20:23:15.781Z,66.20
2023-05-08T20:25:46.100Z,66.40
2023-05-08T20:28:12.710Z,66.30
2023-05-08T20:30:39.475Z,66.40
2023-05-08T20:33:06.248Z,66.40
2023-05-08T20:35:33.689Z,66.50
2023-05-08T20:38:00.486Z,66.40
2023-05-08T20:40:27.180Z,66.40
2023-05-08T20:42:53.791Z,66.50
2023-05-08T20:45:20.421Z,66.50
2023-05-08T20:47:47.351Z,66.60
2023-05-08T20:50:16.158Z,66.60
2023-05-08T20:52:43.140Z,66.60
2023-05-08T20:55:10.151Z,66.60
2023-05-08T20:57:38.872Z,66.60
2023-05-08T21:00:06.368Z,66.60
2023-05-08T21:02:33.827Z,66.50
2023-05-08T21:05:00.788Z,66.70
2023-05-08T21:07:27.474Z,66.90
2023-05-08T21:09:54.062Z,66.80
2023-05-08T21:12:20.752Z,66.80
2023-05-08T21:14:47.414Z,66.90
2023-05-08T21:17:14.129Z,67.00
2023-05-08T21:19:40.837Z,67.00
2023-05-08T21:22:09.261Z,67.10
2023-05-08T21:24:37.183Z,67.10
2023-05-08T21:27:03.973Z,67.20
2023-05-08T21:29:30.607Z,67.20
2023-05-08T21:31:57.391Z,67.20
2023-05-08T21:34:24.214Z,67.10
2023-05-08T21:36:50.918Z,67.10
2023-05-08T21:39:17.580Z,67.20
2023-05-08T21:41:44.610Z,67.10
2023-05-08T21:44:15.319Z,67.10
2023-05-08T21:46:42.053Z,67.20
2023-05-08T21:49:08.673Z,67.10
2023-05-08T21:51:35.631Z,67.10
2023-05-08T21:54:02.260Z,67.00
2023-05-08T21:56:28.905Z,67.00
2023-05-08T21:58:55.679Z,67.00
2023-05-08T22:01:22.457Z,67.10
2023-05-08T22:03:49.476Z,67.20
2023-05-08T22:06:16.193Z,67.20
2023-05-08T22:08:42.868Z,67.20
2023-05-08T22:11:09.637Z,67.30
2023-05-08T22:13:36.539Z,67.30
2023-05-08T22:16:03.440Z,67.30
2023-05-08T22:18:30.118Z,67.40
2023-05-08T22:20:56.858Z,67.50
2023-05-08T22:23:23.518Z,67.50
2023-05-08T22:25:51.590Z,67.50
2023-05-08T22:28:18.234Z,67.60
2023-05-08T22:30:44.934Z,67.50
2023-05-08T22:33:11.571Z,67.60
2023-05-08T22:35:38.317Z,67.60
2023-05-08T22:38:04.973Z,67.70
2023-05-08T22:40:31.740Z,67.70
2023-05-08T22:42:59.020Z,67.70
2023-05-08T22:45:26.968Z,67.70
2023-05-08T22:47:54.554Z,67.70
2023-05-08T22:50:21.504Z,67.70
2023-05-08T22:52:48.156Z,67.70
2023-05-08T22:55:15.723Z,67.60
2023-05-08T22:57:42.798Z,67.70
2023-05-08T23:00:10.316Z,67.60
2023-05-08T23:02:37.027Z,67.60
2023-05-08T23:05:03.968Z,67.60
2023-05-08T23:07:30.781Z,67.60
2023-05-08T23:09:57.492Z,67.60
2023-05-08T23:12:24.172Z,67.70
2023-05-08T23:14:51.476Z,67.80
2023-05-08T23:17:18.128Z,67.80
2023-05-08T23:19:45.527Z,67.80
2023-05-08T23:22:12.272Z,67.70
2023-05-08T23:24:38.985Z,67.80
2023-05-08T23:27:05.711Z,67.80
2023-05-08T23:29:32.333Z,67.70
2023-05-08T23:31:59.648Z,67.80
2023-05-08T23:34:26.264Z,67.70
2023-05-08T23:36:53.048Z,67.80
2023-05-08T23:39:19.752Z,67.80
2023-05-08T23:41:46.393Z,67.70
2023-05-08T23:44:13.133Z,67.70
2023-05-08T23:46:39.842Z,67.70
2023-05-08T23:49:07.104Z,67.80
2023-05-08T23:51:34.117Z,67.90
2023-05-08T23:54:01.089Z,67.90
2023-05-08T23:56:27.756Z,67.90
2023-05-08T23:58:54.386Z,67.90
